Time;durP1;ratioP1;P1;durP2;ratioP2;P2;SDS_P1;SDS_P2;PMS_P1;PMS_P2;Temp;Humidity;BMP_temperature;BMP_pressure;BME280_temperature;BME280_humidity;BME280_pressure;Samples;Min_cycle;Max_cycle;Signal;HPM_P1;HPM_P2
2023/08/01 00:00:48;;;;;;;7.72;3.85;;;18.80;86.40;;;;;;5044391;28;20025;-66
2023/08/01 00:03:14;;;;;;;9.32;4.43;;;18.70;86.40;;;;;;5030284;28;20086;-66
2023/08/01 00:05:44;;;;;;;7.90;4.30;;;18.70;86.40;;;;;;5041805;28;20055;-66
2023/08/01 00:08:12;;;;;;;8.10;4.20;;;18.70;86.40;;;;;;5046850;28;20461;-66
2023/08/01 00:10:39;;;;;;;7.22;3.97;;;18.80;86.50;;;;;;5047223;28;20619;-66
2023/08/01 00:13:04;;;;;;;8.70;4.43;;;18.70;86.50;;;;;;5050393;28;20024;-66
2023/08/01 00:15:30;;;;;;;8.50;4.43;;;18.70;86.50;;;;;;5050955;28;20089;-66
2023/08/01 00:17:56;;;;;;;7.85;4.10;;;18.70;86.50;;;;;;5044881;28;20354;-67
2023/08/01 00:20:23;;;;;;;8.10;4.82;;;18.70;86.50;;;;;;5046771;28;20385;-66
2023/08/01 00:22:49;;;;;;;7.53;4.28;;;18.70;86.50;;;;;;5028652;28;20079;-66
2023/08/01 00:25:15;;;;;;;8.55;4.60;;;18.70;86.50;;;;;;5046355;28;20449;-66
2023/08/01 00:27:40;;;;;;;9.98;4.55;;;18.70;86.50;;;;;;5047494;28;20025;-66
2023/08/01 00:30:07;;;;;;;7.78;4.40;;;18.60;86.50;;;;;;5044668;28;20033;-66
2023/08/01 00:32:34;;;;;;;8.02;4.30;;;18.60;86.50;;;;;;5045556;28;20025;-66
2023/08/01 00:35:00;;;;;;;7.70;4.15;;;18.60;86.50;;;;;;5047409;28;20032;-66
2023/08/01 00:37:25;;;;;;;7.65;3.63;;;18.60;86.40;;;;;;5046243;28;20032;-66
2023/08/01 00:39:51;;;;;;;7.47;3.58;;;18.60;86.30;;;;;;5044569;28;20115;-66
2023/08/01 00:42:17;;;;;;;8.32;2.95;;;18.60;86.30;;;;;;5045113;28;20029;-66
2023/08/01 00:44:43;;;;;;;6.22;2.90;;;18.60;86.20;;;;;;5045750;28;20013;-66
2023/08/01 00:47:09;;;;;;;6.63;2.80;;;18.60;86.10;;;;;;5046940;28;20033;-66
2023/08/01 00:49:35;;;;;;;7.72;2.85;;;18.50;85.90;;;;;;5042103;28;20047;-66
2023/08/01 00:52:01;;;;;;;7.35;3.05;;;18.50;85.90;;;;;;5027189;28;20112;-66
2023/08/01 00:54:27;;;;;;;7.53;3.17;;;18.50;85.90;;;;;;5047779;28;20033;-66
2023/08/01 00:56:53;;;;;;;7.68;3.00;;;18.50;85.80;;;;;;5023582;28;20091;-66
2023/08/01 00:59:19;;;;;;;6.38;3.10;;;18.50;85.90;;;;;;5042995;28;20047;-66
2023/08/01 01:01:45;;;;;;;8.88;2.80;;;18.40;85.90;;;;;;5039093;28;20117;-66
2023/08/01 01:04:10;;;;;;;9.27;3.30;;;18.40;85.90;;;;;;5042044;28;20108;-66
2023/08/01 01:06:51;;;;;;;9.23;3.22;;;18.40;85.90;;;;;;5041982;28;20121;-66
2023/08/01 01:09:17;;;;;;;6.97;3.15;;;18.40;86.00;;;;;;5046090;28;20081;-66
2023/08/01 01:11:44;;;;;;;8.63;3.42;;;18.40;86.00;;;;;;5041789;28;20703;-66
2023/08/01 01:14:10;;;;;;;8.15;3.25;;;18.40;86.00;;;;;;5050130;28;20024;-66
2023/08/01 01:16:36;;;;;;;9.05;3.67;;;18.40;85.90;;;;;;5046760;28;20036;-66
2023/08/01 01:19:05;;;;;;;9.80;3.80;;;18.40;85.90;;;;;;5039636;28;20043;-66
2023/08/01 01:21:33;;;;;;;9.25;4.07;;;18.40;85.90;;;;;;5042855;28;20033;-66
2023/08/01 01:24:00;;;;;;;7.03;3.75;;;18.40;85.90;;;;;;5046751;28;20024;-66
2023/08/01 01:26:26;;;;;;;8.43;3.67;;;18.40;85.80;;;;;;5049449;28;20021;-66
2023/08/01 01:28:52;;;;;;;9.18;4.28;;;18.40;85.80;;;;;;5046788;28;20029;-66
2023/08/01 01:31:19;;;;;;;9.05;3.72;;;18.40;85.80;;;;;;5045045;28;20389;-66
2023/08/01 01:33:45;;;;;;;9.05;4.18;;;18.40;85.90;;;;;;5025019;28;20044;-66
2023/08/01 01:36:11;;;;;;;8.93;3.53;;;18.30;85.80;;;;;;5048962;28;20422;-66
2023/08/01 01:38:37;;;;;;;11.15;4.55;;;18.30;86.00;;;;;;5043603;28;20154;-66
2023/08/01 01:41:02;;;;;;;7.78;3.95;;;18.30;86.00;;;;;;5039003;28;20103;-66
2023/08/01 01:43:28;;;;;;;8.30;3.95;;;18.30;86.00;;;;;;5048944;28;20028;-66
2023/08/01 01:45:54;;;;;;;7.47;4.13;;;18.30;86.10;;;;;;5039439;28;20458;-66
2023/08/01 01:48:20;;;;;;;8.23;4.38;;;18.30;86.10;;;;;;5046554;28;20025;-66
2023/08/01 01:50:45;;;;;;;9.52;4.65;;;18.30;86.00;;;;;;5039571;28;20032;-66
2023/08/01 01:53:11;;;;;;;9.82;4.82;;;18.30;86.00;;;;;;5041342;28;20032;-66
2023/08/01 01:55:37;;;;;;;11.15;4.75;;;18.30;86.10;;;;;;5059737;28;20137;-66
2023/08/01 01:58:03;;;;;;;10.13;5.03;;;18.30;86.00;;;;;;5047281;28;20055;-66
2023/08/01 02:00:29;;;;;;;8.32;4.88;;;18.20;86.00;;;;;;5043578;28;20031;-66
2023/08/01 02:02:55;;;;;;;11.27;5.07;;;18.30;86.00;;;;;;5041332;28;20036;-66
2023/08/01 02:05:21;;;;;;;8.80;5.15;;;18.30;86.00;;;;;;5048244;28;20598;-66
2023/08/01 02:07:46;;;;;;;8.13;4.68;;;18.30;85.90;;;;;;5039811;28;20028;-66
2023/08/01 02:10:12;;;;;;;8.18;4.43;;;18.20;85.80;;;;;;5042388;28;20411;-66
2023/08/01 02:12:38;;;;;;;8.80;4.40;;;18.20;85.80;;;;;;5045380;28;20093;-66
2023/08/01 02:15:04;;;;;;;9.93;4.80;;;18.30;85.80;;;;;;5048980;28;20024;-66
2023/08/01 02:17:30;;;;;;;10.05;4.78;;;18.20;85.70;;;;;;5039835;28;20025;-66
2023/08/01 02:19:56;;;;;;;10.32;5.28;;;18.20;85.70;;;;;;5042506;28;20400;-65
2023/08/01 02:22:22;;;;;;;9.68;5.03;;;18.20;86.40;;;;;;5041847;28;20430;-66
2023/08/01 02:24:48;;;;;;;10.23;5.15;;;18.20;85.70;;;;;;5043188;28;20058;-66
2023/08/01 02:27:15;;;;;;;8.65;4.65;;;18.10;85.70;;;;;;5045518;28;20369;-66
2023/08/01 02:29:41;;;;;;;10.18;4.75;;;18.10;85.60;;;;;;5045874;28;20052;-66
2023/08/01 02:32:07;;;;;;;11.10;4.63;;;18.10;85.60;;;;;;5047822;28;20458;-66
2023/08/01 02:34:33;;;;;;;10.38;4.78;;;18.10;85.50;;;;;;5039156;28;20029;-66
2023/08/01 02:36:59;;;;;;;11.23;4.90;;;18.10;85.60;;;;;;5047072;28;20024;-66
2023/08/01 02:39:25;;;;;;;10.93;4.40;;;18.10;85.60;;;;;;5040210;28;20040;-66
2023/08/01 02:41:51;;;;;;;9.85;4.40;;;18.10;85.60;;;;;;5048341;28;20465;-66
2023/08/01 02:44:17;;;;;;;7.80;4.10;;;18.10;85.60;;;;;;5026649;28;20029;-65
2023/08/01 02:46:42;;;;;;;8.13;4.28;;;18.00;85.50;;;;;;5040556;28;20060;-66
2023/08/01 02:49:08;;;;;;;10.52;4.45;;;18.00;85.50;;;;;;5040033;28;20030;-66
2023/08/01 02:51:34;;;;;;;11.00;4.20;;;18.00;85.50;;;;;;5046294;28;20032;-66
2023/08/01 02:53:59;;;;;;;9.40;4.60;;;18.00;85.50;;;;;;5039251;28;20441;-66
2023/08/01 02:56:27;;;;;;;9.02;4.18;;;18.00;85.50;;;;;;5040344;28;20044;-65
2023/08/01 02:58:55;;;;;;;8.52;4.00;;;18.00;85.50;;;;;;5038949;28;20021;-66
2023/08/01 03:01:21;;;;;;;11.27;4.95;;;18.00;85.60;;;;;;5043671;28;20036;-66
2023/08/01 03:03:47;;;;;;;9.13;4.72;;;18.00;85.60;;;;;;5043906;28;20021;-65
2023/08/01 03:06:15;;;;;;;8.88;4.70;;;18.00;85.60;;;;;;5046266;28;20083;-66
2023/08/01 03:08:41;;;;;;;10.02;5.30;;;18.00;85.60;;;;;;5045881;28;20025;-66
2023/08/01 03:11:07;;;;;;;10.85;5.43;;;18.00;85.60;;;;;;5044940;28;20045;-65
2023/08/01 03:13:33;;;;;;;9.88;5.43;;;18.00;85.60;;;;;;5049713;28;20036;-65
2023/08/01 03:15:58;;;;;;;11.77;5.43;;;18.00;85.60;;;;;;5031169;28;20044;-66
2023/08/01 03:18:24;;;;;;;10.13;5.72;;;18.00;85.70;;;;;;5052128;28;20033;-66
2023/08/01 03:20:50;;;;;;;12.80;5.18;;;18.00;85.60;;;;;;5064524;28;20025;-66
2023/08/01 03:23:16;;;;;;;12.15;5.97;;;18.00;85.70;;;;;;5046184;28;20116;-66
2023/08/01 03:25:41;;;;;;;10.65;5.15;;;18.00;85.70;;;;;;5048548;28;20107;-65
2023/08/01 03:28:07;;;;;;;11.63;5.03;;;18.00;85.70;;;;;;5050348;28;20390;-66
2023/08/01 03:30:33;;;;;;;9.10;4.97;;;18.00;85.80;;;;;;5047237;28;20028;-66
2023/08/01 03:33:02;;;;;;;10.13;5.20;;;18.00;85.80;;;;;;5047410;28;20117;-66
2023/08/01 03:35:28;;;;;;;11.40;4.88;;;18.00;85.80;;;;;;5043775;28;20048;-66
2023/08/01 03:37:54;;;;;;;12.88;4.95;;;18.00;85.80;;;;;;5052073;28;20029;-66
2023/08/01 03:40:19;;;;;;;12.80;4.88;;;18.00;85.80;;;;;;5051303;28;20033;-66
2023/08/01 03:42:45;;;;;;;10.98;4.78;;;18.00;85.90;;;;;;5053874;28;20024;-66
2023/08/01 03:45:11;;;;;;;10.02;4.85;;;18.00;85.90;;;;;;5043997;28;20332;-66
2023/08/01 03:47:37;;;;;;;10.27;5.18;;;18.00;86.00;;;;;;5050625;28;20158;-66
2023/08/01 03:50:03;;;;;;;10.18;5.38;;;18.00;86.00;;;;;;5050324;28;20410;-66
2023/08/01 03:52:29;;;;;;;12.35;5.20;;;18.00;86.00;;;;;;5050513;28;20037;-66
2023/08/01 03:54:55;;;;;;;11.30;5.03;;;18.00;86.00;;;;;;5038105;28;20112;-66
2023/08/01 03:57:21;;;;;;;10.63;4.75;;;18.00;86.10;;;;;;5050396;28;20032;-65
2023/08/01 03:59:47;;;;;;;9.40;4.88;;;18.00;86.10;;;;;;5052068;28;20021;-66
2023/08/01 04:02:13;;;;;;;10.15;4.78;;;18.10;86.10;;;;;;5045488;28;20026;-66
2023/08/01 04:04:39;;;;;;;10.23;4.80;;;18.10;86.10;;;;;;5034336;28;20056;-65
2023/08/01 04:07:04;;;;;;;8.40;4.03;;;18.10;86.10;;;;;;5051279;28;20101;-66
2023/08/01 04:09:30;;;;;;;11.48;4.80;;;18.10;86.10;;;;;;5044382;28;20086;-66
2023/08/01 04:11:56;;;;;;;14.55;5.22;;;18.10;86.10;;;;;;5050736;28;20354;-66
2023/08/01 04:14:22;;;;;;;11.05;4.75;;;18.10;86.00;;;;;;5067475;28;20021;-66
2023/08/01 04:16:48;;;;;;;14.07;4.90;;;18.10;86.00;;;;;;5050331;28;20510;-66
2023/08/01 04:19:13;;;;;;;9.98;4.78;;;18.10;86.10;;;;;;5048835;28;21377;-66
2023/08/01 04:21:39;;;;;;;11.90;4.90;;;18.10;86.10;;;;;;5052987;28;20025;-66
2023/08/01 04:24:05;;;;;;;10.93;4.78;;;18.10;86.10;;;;;;5049764;28;20142;-66
2023/08/01 04:26:30;;;;;;;10.45;4.35;;;18.10;86.00;;;;;;5030231;28;20442;-66
2023/08/01 04:28:56;;;;;;;12.32;4.88;;;18.10;86.00;;;;;;5049295;28;20029;-66
2023/08/01 04:31:22;;;;;;;11.43;4.88;;;18.10;86.00;;;;;;5048114;28;20040;-66
2023/08/01 04:33:47;;;;;;;9.90;4.47;;;18.10;86.70;;;;;;5046076;28;20040;-64
2023/08/01 04:36:13;;;;;;;11.63;5.00;;;18.10;86.00;;;;;;5048355;28;20064;-65
2023/08/01 04:38:39;;;;;;;9.98;4.85;;;18.10;86.00;;;;;;5047633;28;20033;-65
2023/08/01 04:41:05;;;;;;;9.23;3.92;;;18.10;86.00;;;;;;5046523;28;20040;-65
2023/08/01 04:43:30;;;;;;;10.05;4.10;;;18.10;86.00;;;;;;5041555;28;20025;-65
2023/08/01 04:45:56;;;;;;;12.00;4.95;;;18.10;86.20;;;;;;5042858;28;20415;-65
2023/08/01 04:48:22;;;;;;;12.00;4.38;;;18.10;86.00;;;;;;5046203;28;20042;-65
2023/08/01 04:50:47;;;;;;;10.95;4.45;;;18.10;86.00;;;;;;5041125;28;20044;-65
2023/08/01 04:53:13;;;;;;;8.95;4.60;;;18.10;86.00;;;;;;5036593;28;20033;-65
2023/08/01 04:55:40;;;;;;;9.52;4.22;;;18.10;86.00;;;;;;5038064;28;20073;-65
2023/08/01 04:58:05;;;;;;;11.90;4.88;;;18.10;86.00;;;;;;5048570;28;20036;-65
2023/08/01 05:00:31;;;;;;;12.95;4.93;;;18.10;86.00;;;;;;5040967;28;20374;-65
2023/08/01 05:02:57;;;;;;;12.65;4.82;;;18.10;86.00;;;;;;5045081;28;20017;-65
2023/08/01 05:05:23;;;;;;;11.93;5.10;;;18.10;86.10;;;;;;5047253;28;20439;-65
2023/08/01 05:07:48;;;;;;;11.88;4.85;;;18.10;86.10;;;;;;5067998;28;20036;-65
2023/08/01 05:10:14;;;;;;;9.65;3.97;;;18.10;86.10;;;;;;5050006;28;20037;-65
2023/08/01 05:12:40;;;;;;;9.88;4.72;;;18.10;86.10;;;;;;5038843;28;20056;-65
2023/08/01 05:15:06;;;;;;;10.10;4.32;;;18.10;86.10;;;;;;5031792;28;20033;-67
2023/08/01 05:17:32;;;;;;;10.38;4.88;;;18.10;86.00;;;;;;5041099;28;20043;-64
2023/08/01 05:19:58;;;;;;;11.93;4.75;;;18.10;86.10;;;;;;5046188;28;20037;-64
2023/08/01 05:22:23;;;;;;;10.90;4.72;;;18.10;86.00;;;;;;5052975;28;20043;-64
2023/08/01 05:24:49;;;;;;;9.15;4.50;;;18.10;86.00;;;;;;5053023;28;20175;-64
2023/08/01 05:27:15;;;;;;;11.52;4.90;;;18.10;86.00;;;;;;5044468;28;20046;-64
2023/08/01 05:29:40;;;;;;;12.38;4.65;;;18.10;86.00;;;;;;5048776;28;20041;-64
2023/08/01 05:32:06;;;;;;;12.95;4.32;;;18.10;86.00;;;;;;5054355;28;20051;-65
2023/08/01 05:34:33;;;;;;;11.65;4.38;;;18.20;86.10;;;;;;5052009;28;20033;-64
2023/08/01 05:36:58;;;;;;;11.43;4.75;;;18.20;86.00;;;;;;5053892;28;20090;-64
2023/08/01 05:39:24;;;;;;;10.80;5.53;;;18.20;86.70;;;;;;5037217;28;20041;-64
2023/08/01 05:41:50;;;;;;;13.25;4.80;;;18.20;86.00;;;;;;5054488;28;20033;-64
2023/08/01 05:44:16;;;;;;;11.27;5.32;;;18.20;86.10;;;;;;5048760;28;20025;-64
2023/08/01 05:46:42;;;;;;;12.00;5.22;;;18.20;86.00;;;;;;5048629;28;20025;-64
2023/08/01 05:49:08;;;;;;;9.20;4.57;;;18.30;86.00;;;;;;5054725;28;20031;-64
2023/08/01 05:51:33;;;;;;;10.52;4.75;;;18.30;86.00;;;;;;5052500;28;20528;-64
2023/08/01 05:53:59;;;;;;;10.88;4.97;;;18.30;85.90;;;;;;5050671;28;20037;-64
2023/08/01 05:56:25;;;;;;;12.60;5.22;;;18.30;85.90;;;;;;5052745;28;20033;-64
2023/08/01 05:58:50;;;;;;;12.95;4.97;;;18.30;85.90;;;;;;5054095;28;20069;-64
2023/08/01 06:01:16;;;;;;;10.07;5.55;;;18.40;85.90;;;;;;5054024;28;20323;-64
2023/08/01 06:03:42;;;;;;;11.05;5.22;;;18.40;85.80;;;;;;5042680;28;20067;-65
2023/08/01 06:06:08;;;;;;;11.25;5.07;;;18.40;85.80;;;;;;5051044;28;20083;-64
2023/08/01 06:08:34;;;;;;;12.32;5.30;;;18.40;85.60;;;;;;5043342;28;20092;-64
2023/08/01 06:10:59;;;;;;;11.05;4.90;;;18.50;85.70;;;;;;5047651;28;20078;-65
2023/08/01 06:13:25;;;;;;;9.98;4.43;;;18.50;85.70;;;;;;5045297;28;20033;-65
2023/08/01 06:15:51;;;;;;;11.93;5.32;;;18.40;85.60;;;;;;5048191;28;20025;-66
2023/08/01 06:18:17;;;;;;;10.18;5.28;;;18.40;85.70;;;;;;5045695;28;20024;-64
2023/08/01 06:20:42;;;;;;;12.60;5.53;;;18.50;85.70;;;;;;5050487;28;20036;-66
2023/08/01 06:23:08;;;;;;;8.68;4.97;;;18.50;85.60;;;;;;5047844;28;20047;-66
2023/08/01 06:25:34;;;;;;;12.82;5.65;;;18.50;85.60;;;;;;5046529;28;20118;-65
2023/08/01 06:28:00;;;;;;;12.95;5.25;;;18.50;85.50;;;;;;5047178;28;20021;-66
2023/08/01 06:30:26;;;;;;;12.48;4.95;;;18.50;85.50;;;;;;5050859;28;20093;-66
2023/08/01 06:32:51;;;;;;;11.77;5.05;;;18.50;85.40;;;;;;5047239;28;20126;-66
2023/08/01 06:35:17;;;;;;;12.07;4.88;;;18.50;85.30;;;;;;5061863;28;20087;-67
2023/08/01 06:37:43;;;;;;;15.27;5.82;;;18.50;85.30;;;;;;5046615;28;20412;-66
2023/08/01 06:40:10;;;;;;;7.80;4.43;;;18.50;85.10;;;;;;5051313;28;20115;-66
2023/08/01 06:42:35;;;;;;;10.90;4.63;;;18.50;85.10;;;;;;5063346;28;20029;-66
2023/08/01 06:45:01;;;;;;;13.40;4.43;;;18.60;85.20;;;;;;5050529;28;20040;-66
2023/08/01 06:47:27;;;;;;;11.85;5.03;;;18.60;85.00;;;;;;5053483;28;20032;-66
2023/08/01 06:49:53;;;;;;;10.93;4.50;;;18.70;85.00;;;;;;5054575;28;20032;-66
2023/08/01 06:52:19;;;;;;;12.95;5.10;;;18.70;85.00;;;;;;5057726;28;20053;-66
2023/08/01 06:54:44;;;;;;;10.95;5.22;;;18.80;84.90;;;;;;5052782;28;20075;-66
2023/08/01 06:57:10;;;;;;;9.25;4.20;;;18.80;84.70;;;;;;5032106;28;20087;-66
2023/08/01 06:59:36;;;;;;;12.00;4.57;;;18.90;84.40;;;;;;5046665;28;20028;-66
2023/08/01 07:02:02;;;;;;;12.23;4.38;;;18.90;84.20;;;;;;5039574;28;20078;-66
2023/08/01 07:04:28;;;;;;;10.50;4.05;;;18.90;84.10;;;;;;5048120;28;20024;-65
2023/08/01 07:06:53;;;;;;;10.82;4.30;;;19.00;84.00;;;;;;5048252;28;20025;-66
2023/08/01 07:09:19;;;;;;;11.07;4.05;;;19.00;83.90;;;;;;5047398;28;20307;-65
2023/08/01 07:11:45;;;;;;;9.85;4.13;;;19.00;83.80;;;;;;5054547;28;20187;-66
2023/08/01 07:14:10;;;;;;;12.32;4.05;;;19.10;83.80;;;;;;5042191;28;20036;-65
2023/08/01 07:16:36;;;;;;;9.30;3.95;;;19.10;83.70;;;;;;5039808;28;20032;-65
2023/08/01 07:19:02;;;;;;;10.75;4.20;;;19.10;83.60;;;;;;5047843;28;20033;-66
2023/08/01 07:21:28;;;;;;;12.10;4.32;;;19.10;83.50;;;;;;5044002;28;20053;-66
2023/08/01 07:23:54;;;;;;;10.82;3.60;;;19.10;83.40;;;;;;5051679;28;20095;-66
2023/08/01 07:26:20;;;;;;;11.25;4.30;;;19.10;83.20;;;;;;5039390;28;20025;-66
2023/08/01 07:28:46;;;;;;;10.50;3.85;;;19.20;83.20;;;;;;5045634;28;20028;-66
2023/08/01 07:31:12;;;;;;;8.18;3.35;;;19.20;83.10;;;;;;5056073;28;20142;-66
2023/08/01 07:33:37;;;;;;;8.93;3.70;;;19.30;83.00;;;;;;5056099;28;20044;-66
2023/08/01 07:36:03;;;;;;;12.07;4.10;;;19.40;82.80;;;;;;5056894;28;20095;-66
2023/08/01 07:38:31;;;;;;;8.93;3.47;;;19.60;82.30;;;;;;5046951;28;20056;-66
2023/08/01 07:41:01;;;;;;;11.30;3.42;;;19.90;81.80;;;;;;5055880;28;20032;-66
2023/08/01 07:43:27;;;;;;;9.48;3.58;;;20.10;81.40;;;;;;5053794;28;20028;-66
2023/08/01 07:45:57;;;;;;;8.82;3.40;;;20.20;80.90;;;;;;5045613;28;20071;-66
2023/08/01 07:48:23;;;;;;;10.05;3.58;;;20.30;80.30;;;;;;5048983;28;20078;-66
2023/08/01 07:50:48;;;;;;;8.05;3.50;;;20.40;79.80;;;;;;5046267;28;20037;-66
2023/08/01 07:53:14;;;;;;;9.68;3.08;;;20.30;79.60;;;;;;5043891;28;20035;-65
2023/08/01 07:55:40;;;;;;;9.10;2.95;;;20.30;79.70;;;;;;5042760;28;20107;-65
2023/08/01 07:58:05;;;;;;;10.25;3.35;;;20.60;79.40;;;;;;5041765;28;20025;-65
2023/08/01 08:00:31;;;;;;;8.98;3.20;;;20.80;78.60;;;;;;5044254;28;20036;-65
2023/08/01 08:02:57;;;;;;;7.07;2.67;;;20.90;77.90;;;;;;5049958;28;20018;-64
2023/08/01 08:05:23;;;;;;;8.70;3.10;;;21.00;77.70;;;;;;5038989;28;20056;-65
2023/08/01 08:07:48;;;;;;;14.75;3.33;;;20.90;77.30;;;;;;5055087;28;20025;-65
2023/08/01 08:10:15;;;;;;;10.18;3.10;;;20.80;77.40;;;;;;5053020;28;20033;-65
2023/08/01 08:12:40;;;;;;;10.40;2.90;;;20.70;77.30;;;;;;5042107;28;20080;-65
2023/08/01 08:15:07;;;;;;;7.88;3.10;;;20.70;77.30;;;;;;5050714;28;20050;-65
2023/08/01 08:17:32;;;;;;;6.72;2.92;;;20.70;77.30;;;;;;5053630;28;20030;-65
2023/08/01 08:19:58;;;;;;;8.23;3.17;;;20.70;77.40;;;;;;5050035;28;20021;-65
2023/08/01 08:22:24;;;;;;;8.48;3.20;;;20.60;77.40;;;;;;5052873;28;20040;-64
2023/08/01 08:24:50;;;;;;;9.13;3.33;;;20.50;77.50;;;;;;5043865;28;20108;-64
2023/08/01 08:27:15;;;;;;;13.45;3.30;;;20.30;78.00;;;;;;5046325;28;20037;-64
2023/08/01 08:29:41;;;;;;;9.05;2.80;;;20.10;78.50;;;;;;5052847;28;20029;-64
2023/08/01 08:32:07;;;;;;;7.18;2.95;;;19.90;78.90;;;;;;5052494;28;20064;-64
2023/08/01 08:34:33;;;;;;;7.25;3.40;;;19.70;79.30;;;;;;5052905;28;20025;-64
2023/08/01 08:36:59;;;;;;;9.43;3.70;;;19.60;79.80;;;;;;5053554;28;20032;-65
2023/08/01 08:39:25;;;;;;;9.25;3.13;;;19.70;80.20;;;;;;5055025;28;20048;-65
2023/08/01 08:41:52;;;;;;;7.68;3.15;;;20.00;80.00;;;;;;5054895;28;20029;-65
2023/08/01 08:44:20;;;;;;;9.02;3.22;;;20.20;79.50;;;;;;5040428;28;20467;-65
2023/08/01 08:46:52;;;;;;;7.45;2.85;;;20.50;79.30;;;;;;5045402;28;20027;-65
2023/08/01 08:49:20;;;;;;;11.90;3.47;;;20.60;78.90;;;;;;5043661;28;20342;-65
2023/08/01 08:51:46;;;;;;;7.88;3.20;;;20.80;78.70;;;;;;5044253;28;20114;-65
2023/08/01 08:54:13;;;;;;;9.02;3.35;;;21.00;78.30;;;;;;5051094;28;20450;-65
2023/08/01 08:56:40;;;;;;;11.02;3.63;;;21.20;78.10;;;;;;5041961;28;20029;-64
2023/08/01 08:59:09;;;;;;;9.90;3.25;;;21.10;78.00;;;;;;5036109;28;20090;-64
2023/08/01 09:01:36;;;;;;;9.02;3.63;;;21.00;77.90;;;;;;5042133;28;20037;-65
2023/08/01 09:04:02;;;;;;;10.30;2.90;;;21.10;77.90;;;;;;5046347;28;20025;-65
2023/08/01 09:06:39;;;;;;;6.47;2.83;;;21.20;77.50;;;;;;5046273;28;20037;-64
2023/08/01 09:09:13;;;;;;;7.70;2.72;;;21.10;77.30;;;;;;5053317;28;20044;-65
2023/08/01 09:11:43;;;;;;;7.15;2.72;;;21.30;76.90;;;;;;5054810;28;20416;-65
2023/08/01 09:14:10;;;;;;;7.93;2.65;;;21.50;76.40;;;;;;5052746;28;20434;-65
2023/08/01 09:16:36;;;;;;;6.88;2.53;;;21.80;75.90;;;;;;5048635;28;20036;-65
2023/08/01 09:19:02;;;;;;;6.63;2.33;;;21.70;75.50;;;;;;5039385;28;20474;-65
2023/08/01 09:21:35;;;;;;;7.05;2.97;;;21.50;75.60;;;;;;5044943;28;20024;-65
2023/08/01 09:24:21;;;;;;;5.75;1.83;;;21.40;75.70;;;;;;5044308;28;20021;-65
2023/08/01 09:26:48;;;;;;;6.88;2.33;;;21.70;75.80;;;;;;5025510;28;20044;-65
2023/08/01 09:29:17;;;;;;;5.70;2.45;;;22.00;75.30;;;;;;5049754;28;20033;-65
2023/08/01 09:31:43;;;;;;;6.05;2.42;;;22.30;74.40;;;;;;5049274;28;20509;-65
2023/08/01 09:34:20;;;;;;;5.78;2.13;;;22.30;73.80;;;;;;5044897;28;20035;-65
2023/08/01 09:36:46;;;;;;;7.78;2.20;;;22.20;73.20;;;;;;5044951;28;20082;-65
2023/08/01 09:39:17;;;;;;;5.50;2.08;;;22.10;73.20;;;;;;5044908;28;20045;-64
2023/08/01 09:41:43;;;;;;;6.03;2.10;;;21.90;73.00;;;;;;5035509;28;20154;-64
2023/08/01 09:44:15;;;;;;;5.65;2.03;;;21.80;73.30;;;;;;5046040;28;20335;-64
2023/08/01 09:46:42;;;;;;;7.65;2.22;;;21.90;72.90;;;;;;5053882;28;20037;-67
2023/08/01 09:49:12;;;;;;;8.23;2.35;;;21.90;72.30;;;;;;5045593;28;20033;-65
2023/08/01 09:51:49;;;;;;;7.68;1.92;;;21.90;72.00;;;;;;5053054;28;20407;-65
2023/08/01 09:54:16;;;;;;;7.85;2.30;;;21.80;71.40;;;;;;5041549;28;20098;-65
2023/08/01 09:56:45;;;;;;;8.20;1.90;;;22.00;71.50;;;;;;5040335;28;20035;-65
2023/08/01 09:59:11;;;;;;;5.25;2.08;;;22.30;70.60;;;;;;5042159;28;20458;-65
2023/08/01 10:01:39;;;;;;;6.25;2.20;;;22.40;70.10;;;;;;5038665;28;20075;-65
2023/08/01 10:04:07;;;;;;;6.38;1.88;;;22.50;69.80;;;;;;5043856;28;20036;-65
2023/08/01 10:06:36;;;;;;;8.45;2.55;;;22.70;69.30;;;;;;5036232;28;20108;-65
2023/08/01 10:09:03;;;;;;;9.25;2.63;;;23.00;68.70;;;;;;5046780;28;20033;-65
2023/08/01 10:11:33;;;;;;;6.82;2.25;;;23.00;68.70;;;;;;5042463;28;20357;-66
2023/08/01 10:14:02;;;;;;;6.88;2.25;;;23.20;68.00;;;;;;5041694;28;20033;-66
2023/08/01 10:16:29;;;;;;;6.20;1.95;;;23.30;67.70;;;;;;5053721;28;20021;-65
2023/08/01 10:18:55;;;;;;;6.63;2.60;;;23.40;66.90;;;;;;5038433;28;20405;-65
2023/08/01 10:21:22;;;;;;;9.93;2.15;;;23.50;66.60;;;;;;5037554;28;20086;-65
2023/08/01 10:23:49;;;;;;;5.90;1.85;;;23.60;66.10;;;;;;5047201;28;20403;-65
2023/08/01 10:26:15;;;;;;;6.70;1.88;;;23.80;65.50;;;;;;5048633;28;20037;-65
2023/08/01 10:28:50;;;;;;;5.22;2.20;;;23.90;65.10;;;;;;5029373;28;20401;-65
2023/08/01 10:31:18;;;;;;;6.80;2.50;;;24.00;64.50;;;;;;5042729;28;20040;-66
2023/08/01 10:33:46;;;;;;;5.43;1.90;;;24.10;64.20;;;;;;5054163;28;20028;-65
2023/08/01 10:36:23;;;;;;;6.18;2.00;;;24.10;64.10;;;;;;5050242;28;20028;-66
2023/08/01 10:38:52;;;;;;;6.18;1.90;;;24.20;63.60;;;;;;5043353;28;20056;-65
2023/08/01 10:41:19;;;;;;;4.35;1.40;;;24.10;63.50;;;;;;5046562;28;20025;-65
2023/08/01 10:43:46;;;;;;;5.40;1.40;;;24.10;63.20;;;;;;5048825;28;20032;-65
2023/08/01 10:46:12;;;;;;;5.50;1.70;;;24.30;62.80;;;;;;5045367;28;20031;-65
2023/08/01 10:48:51;;;;;;;3.85;1.40;;;24.40;62.30;;;;;;5063264;28;20381;-65
2023/08/01 10:51:17;;;;;;;4.90;1.70;;;24.50;61.70;;;;;;5033592;28;20354;-65
2023/08/01 10:53:43;;;;;;;6.30;1.85;;;24.60;61.70;;;;;;5054013;28;20036;-65
2023/08/01 10:56:17;;;;;;;7.50;2.05;;;24.70;61.20;;;;;;5048879;28;20362;-65
2023/08/01 10:58:42;;;;;;;8.45;2.08;;;24.80;60.60;;;;;;5064693;28;20033;-65
2023/08/01 11:01:08;;;;;;;7.30;1.85;;;24.90;60.50;;;;;;5041848;28;20028;-65
2023/08/01 11:03:38;;;;;;;6.15;1.92;;;24.80;60.50;;;;;;5048291;28;20025;-65
2023/08/01 11:06:04;;;;;;;4.00;1.60;;;24.80;60.50;;;;;;5039685;28;20105;-65
2023/08/01 11:08:40;;;;;;;6.60;2.58;;;24.80;60.60;;;;;;5043302;28;20017;-65
2023/08/01 11:11:10;;;;;;;6.90;2.15;;;24.80;60.50;;;;;;5051759;28;20136;-66
2023/08/01 11:13:36;;;;;;;6.43;2.00;;;24.80;60.60;;;;;;5046491;28;20045;-66
2023/08/01 11:16:06;;;;;;;5.78;1.95;;;24.70;61.00;;;;;;5042885;28;20040;-66
2023/08/01 11:18:42;;;;;;;5.53;2.20;;;24.80;60.60;;;;;;5051084;28;20033;-65
2023/08/01 11:21:08;;;;;;;6.50;2.00;;;24.90;59.80;;;;;;5040595;28;20032;-64
2023/08/01 11:23:36;;;;;;;7.43;2.22;;;24.90;59.70;;;;;;5049169;28;20037;-65
2023/08/01 11:26:08;;;;;;;7.53;1.83;;;24.90;59.30;;;;;;5055060;28;20159;-65
2023/08/01 11:28:34;;;;;;;7.82;1.98;;;25.00;58.80;;;;;;5055285;28;20024;-66
2023/08/01 11:31:00;;;;;;;6.72;2.00;;;24.90;58.70;;;;;;5054707;28;20098;-66
2023/08/01 11:33:26;;;;;;;5.57;2.33;;;25.00;58.70;;;;;;5069367;28;20465;-66
2023/08/01 11:35:57;;;;;;;6.43;2.22;;;25.00;58.50;;;;;;5055847;28;20024;-66
2023/08/01 11:38:23;;;;;;;;;;;25.10;58.40;;;;;;5046484;28;20037;-66
2023/08/01 11:40:51;;;;;;;8.10;2.20;;;25.00;58.40;;;;;;5042393;28;20004;-66
2023/08/01 11:43:17;;;;;;;5.03;1.73;;;25.10;58.60;;;;;;5056305;28;20476;-66
2023/08/01 11:45:54;;;;;;;5.63;1.92;;;25.00;58.20;;;;;;5041666;28;20030;-65
2023/08/01 11:48:22;;;;;;;6.13;2.20;;;24.90;58.20;;;;;;5049881;28;20029;-65
2023/08/01 11:50:48;;;;;;;8.85;2.63;;;24.90;58.40;;;;;;5053093;28;20461;-65
2023/08/01 11:53:21;;;;;;;5.95;2.17;;;25.00;58.40;;;;;;5047881;28;20040;-66
2023/08/01 11:55:49;;;;;;;6.47;2.10;;;24.90;57.70;;;;;;5049669;28;20516;-66
2023/08/01 11:58:14;;;;;;;4.90;1.60;;;24.80;57.90;;;;;;5052285;28;20474;-66
2023/08/01 12:00:41;;;;;;;5.93;2.20;;;24.70;57.90;;;;;;5052936;28;20059;-66
2023/08/01 12:03:13;;;;;;;9.48;2.13;;;24.30;58.00;;;;;;5045967;28;20029;-66
2023/08/01 12:05:41;;;;;;;7.22;2.00;;;24.00;58.60;;;;;;5055972;28;20092;-65
2023/08/01 12:08:14;;;;;;;6.18;1.77;;;23.80;58.90;;;;;;5050777;28;20388;-66
2023/08/01 12:10:42;;;;;;;5.15;1.70;;;23.80;59.30;;;;;;5067774;28;20033;-65
2023/08/01 12:13:20;;;;;;;4.93;1.52;;;23.90;59.00;;;;;;5046496;28;20143;-65
2023/08/01 12:15:48;;;;;;;5.75;1.98;;;24.00;58.80;;;;;;5052678;28;20036;-66
2023/08/01 12:18:21;;;;;;;5.88;1.70;;;24.00;59.00;;;;;;5047706;28;20115;-65
2023/08/01 12:20:47;;;;;;;5.05;1.80;;;23.80;59.30;;;;;;5047881;28;20094;-65
2023/08/01 12:23:12;;;;;;;6.18;1.80;;;23.50;59.40;;;;;;5049464;28;20103;-65
2023/08/01 12:25:38;;;;;;;7.50;3.00;;;23.30;59.80;;;;;;5050505;28;20414;-65
2023/08/01 12:28:04;;;;;;;8.20;2.90;;;23.20;60.50;;;;;;5049316;28;20029;-65
2023/08/01 12:30:30;;;;;;;8.20;2.42;;;23.00;60.80;;;;;;5054519;28;20033;-65
2023/08/01 12:32:56;;;;;;;5.88;2.03;;;22.90;61.10;;;;;;5031541;28;20035;-66
2023/08/01 12:35:22;;;;;;;6.20;1.98;;;22.70;61.40;;;;;;5050119;28;20033;-65
2023/08/01 12:37:47;;;;;;;8.80;2.28;;;22.60;61.30;;;;;;5054152;28;20073;-65
2023/08/01 12:40:13;;;;;;;5.05;1.83;;;22.40;61.50;;;;;;5040357;28;20048;-65